createdAt,value
2017-12-13T00:01:11.116Z,98505.38
2017-12-13T00:03:39.038Z,98516.16
2017-12-13T00:06:06.491Z,98511.89
2017-12-13T00:08:33.953Z,98505.78
2017-12-13T00:11:01.811Z,98507.87
2017-12-13T00:13:29.269Z,98509.67
2017-12-13T00:15:56.726Z,98497.91
2017-12-13T00:18:24.540Z,98495.06
2017-12-13T00:20:52.000Z,98498.48
2017-12-13T00:23:20.104Z,98504.39
2017-12-13T00:25:48.109Z,98509.77
2017-12-13T00:28:15.565Z,98513.56
2017-12-13T00:30:43.024Z,98514.19
2017-12-13T00:33:11.700Z,98508.73
2017-12-13T00:35:39.166Z,98516.32
2017-12-13T00:38:06.635Z,98521.95
2017-12-13T00:40:34.383Z,98526.62
2017-12-13T00:43:01.842Z,98533.59
2017-12-13T00:45:29.295Z,98538.16
2017-12-13T00:47:57.081Z,98541.62
2017-12-13T00:50:24.539Z,98546.55
2017-12-13T00:52:52.004Z,98542.28
2017-12-13T00:55:19.778Z,98532.72
2017-12-13T00:57:47.226Z,98543.05
2017-12-13T01:00:14.705Z,98549.45
2017-12-13T01:02:42.388Z,98547.71
2017-12-13T01:05:09.917Z,98547.22
2017-12-13T01:07:37.397Z,98543.75
2017-12-13T01:10:08.213Z,98545.06
2017-12-13T01:12:35.677Z,98553.69
2017-12-13T01:15:03.128Z,98554.55
2017-12-13T01:17:30.893Z,98553.42
2017-12-13T01:19:58.352Z,98558.49
2017-12-13T01:22:25.802Z,98560.23
2017-12-13T01:24:55.727Z,98558.94
2017-12-13T01:27:23.185Z,98558.73
2017-12-13T01:29:50.640Z,98569.07
2017-12-13T01:32:18.721Z,98577.44
2017-12-13T01:34:46.177Z,98583.09
2017-12-13T01:37:13.631Z,98575.77
2017-12-13T01:39:41.346Z,98581.11
2017-12-13T01:42:08.799Z,98579.51
2017-12-13T01:44:36.253Z,98587.37
2017-12-13T01:47:03.988Z,98589.09
2017-12-13T01:49:31.449Z,98587.56
2017-12-13T01:51:58.902Z,98587.29
2017-12-13T01:54:26.785Z,98594.97
2017-12-13T01:56:54.240Z,98586.91
2017-12-13T01:59:21.685Z,98581.22
2017-12-13T02:01:49.782Z,98588.08
2017-12-13T02:04:17.246Z,98589.42
2017-12-13T02:06:44.737Z,98588.20
2017-12-13T02:09:12.400Z,98593.39
2017-12-13T02:11:39.860Z,98594.30
2017-12-13T02:14:07.327Z,98595.52
2017-12-13T02:16:35.148Z,98590.34
2017-12-13T02:19:02.608Z,98583.17
2017-12-13T02:21:30.074Z,98576.79
2017-12-13T02:23:57.840Z,98575.36
2017-12-13T02:26:25.997Z,98569.03
2017-12-13T02:28:53.490Z,98557.45
2017-12-13T02:31:21.448Z,98552.28
2017-12-13T02:33:48.906Z,98544.38
2017-12-13T02:36:16.357Z,98554.45
2017-12-13T02:38:44.185Z,98547.82
2017-12-13T02:41:11.642Z,98549.50
2017-12-13T02:43:39.109Z,98556.45
2017-12-13T02:46:06.829Z,98556.72
2017-12-13T02:48:34.289Z,98556.53
2017-12-13T02:51:01.754Z,98561.83
2017-12-13T02:53:29.818Z,98558.61
2017-12-13T02:55:57.272Z,98562.69
2017-12-13T02:58:24.723Z,98557.31
2017-12-13T03:00:52.553Z,98555.25
2017-12-13T03:03:20.015Z,98541.72
2017-12-13T03:05:47.471Z,98547.47
2017-12-13T03:08:15.188Z,98547.41
2017-12-13T03:10:42.644Z,98540.15
2017-12-13T03:13:10.814Z,98539.13
2017-12-13T03:15:38.801Z,98541.59
2017-12-13T03:18:06.272Z,98532.08
2017-12-13T03:20:33.749Z,98540.94
2017-12-13T03:23:01.490Z,98544.30
2017-12-13T03:25:28.945Z,98550.19
2017-12-13T03:34:40.385Z,98562.56
2017-12-13T03:37:07.841Z,98564.20
2017-12-13T03:39:35.305Z,98562.90
2017-12-13T03:42:03.068Z,98565.25
2017-12-13T03:44:30.521Z,98561.61
2017-12-13T03:46:57.973Z,98566.34
2017-12-13T03:49:26.072Z,98570.51
2017-12-13T03:51:53.532Z,98564.96
2017-12-13T03:54:20.991Z,98567.45
2017-12-13T03:56:49.055Z,98561.30
2017-12-13T03:59:16.516Z,98564.59
2017-12-13T04:01:43.986Z,98566.97
2017-12-13T04:04:11.566Z,98562.88
2017-12-13T04:06:39.019Z,98569.07
2017-12-13T04:09:06.472Z,98563.23
2017-12-13T04:11:34.443Z,98562.43
2017-12-13T04:14:01.894Z,98558.68
2017-12-13T04:16:29.365Z,98560.11
2017-12-13T04:18:57.126Z,98571.77
2017-12-13T04:21:24.598Z,98566.66
2017-12-13T04:23:52.051Z,98570.05
2017-12-13T04:26:19.773Z,98576.08
2017-12-13T04:28:48.542Z,98573.55
2017-12-13T04:31:16.003Z,98572.31
2017-12-13T04:33:43.975Z,98571.08
2017-12-13T04:36:11.448Z,98577.89
2017-12-13T04:38:38.905Z,98568.73
2017-12-13T04:41:06.715Z,98574.83
2017-12-13T04:43:34.175Z,98574.74
2017-12-13T04:46:01.628Z,98577.33
2017-12-13T04:48:29.711Z,98573.69
2017-12-13T04:50:57.172Z,98573.14
2017-12-13T04:53:24.634Z,98577.77
2017-12-13T04:55:52.300Z,98577.39
2017-12-13T04:58:19.761Z,98583.53
2017-12-13T05:00:47.216Z,98586.16
2017-12-13T05:03:15.090Z,98588.30
2017-12-13T05:05:42.552Z,98600.78
2017-12-13T05:08:10.009Z,98590.56
2017-12-13T05:10:39.665Z,98597.17
2017-12-13T05:13:07.450Z,98589.87
2017-12-13T05:15:34.908Z,98592.50
2017-12-13T05:18:02.677Z,98594.31
2017-12-13T05:20:30.189Z,98603.47
2017-12-13T05:22:57.640Z,98614.31
2017-12-13T05:25:25.684Z,98605.87
2017-12-13T05:27:53.146Z,98604.97
2017-12-13T05:30:20.600Z,98601.68
2017-12-13T05:32:48.349Z,98596.72
2017-12-13T05:35:15.809Z,98601.02
2017-12-13T05:37:43.271Z,98598.45
2017-12-13T05:40:11.032Z,98589.47
2017-12-13T05:42:38.490Z,98598.70
2017-12-13T05:45:05.947Z,98605.16
2017-12-13T05:47:33.731Z,98607.47
2017-12-13T05:50:01.197Z,98605.71
2017-12-13T05:52:28.657Z,98610.98
2017-12-13T05:54:56.420Z,98608.66
2017-12-13T05:57:23.882Z,98609.15
2017-12-13T05:59:51.346Z,98605.16
2017-12-13T06:02:19.013Z,98616.77
2017-12-13T06:04:47.150Z,98610.86
2017-12-13T06:07:14.623Z,98614.16
2017-12-13T06:09:42.508Z,98615.51
2017-12-13T06:12:10.561Z,98616.48
2017-12-13T06:14:38.016Z,98625.40
2017-12-13T06:17:06.130Z,98628.67
2017-12-13T06:19:33.576Z,98638.55
2017-12-13T06:22:01.029Z,98630.72
2017-12-13T06:24:29.008Z,98635.94
2017-12-13T06:26:56.470Z,98638.95
2017-12-13T06:29:23.936Z,98633.94
2017-12-13T06:31:51.999Z,98642.17
2017-12-13T06:34:19.462Z,98652.59
2017-12-13T06:36:46.921Z,98648.89
2017-12-13T06:39:14.691Z,98642.56
2017-12-13T06:41:42.146Z,98642.64
2017-12-13T06:44:09.599Z,98639.25
2017-12-13T06:46:37.377Z,98644.16
2017-12-13T06:49:04.826Z,98649.84
2017-12-13T06:51:32.284Z,98652.05
2017-12-13T06:54:00.370Z,98649.72
2017-12-13T06:56:27.854Z,98652.11
2017-12-13T06:58:55.327Z,98659.95
2017-12-13T07:01:23.374Z,98659.47
2017-12-13T07:03:50.828Z,98657.03
2017-12-13T07:06:18.298Z,98652.78
2017-12-13T07:08:46.055Z,98653.17
2017-12-13T07:11:13.541Z,98660.13
2017-12-13T07:13:41.664Z,98664.44
2017-12-13T07:16:09.621Z,98663.10
2017-12-13T07:18:37.090Z,98656.55
2017-12-13T07:21:04.553Z,98647.47
2017-12-13T07:23:32.392Z,98644.52
2017-12-13T07:25:59.872Z,98639.17
2017-12-13T07:28:27.340Z,98634.05
2017-12-13T07:30:55.014Z,98626.85
2017-12-13T07:33:22.482Z,98623.94
2017-12-13T07:35:49.944Z,98616.48
2017-12-13T07:38:18.332Z,98621.22
2017-12-13T07:40:45.793Z,98617.36
2017-12-13T07:43:13.249Z,98615.20
2017-12-13T07:45:40.925Z,98621.70
2017-12-13T07:48:08.428Z,98625.17
2017-12-13T07:50:35.901Z,98631.44
2017-12-13T07:53:03.704Z,98630.63
2017-12-13T07:55:31.174Z,98629.30
2017-12-13T07:57:58.636Z,98631.81
2017-12-13T08:00:26.473Z,98625.36
2017-12-13T08:02:53.931Z,98618.91
2017-12-13T08:05:21.385Z,98621.72
2017-12-13T08:07:49.245Z,98623.77
2017-12-13T08:10:16.725Z,98623.34
2017-12-13T08:12:44.187Z,98626.16
2017-12-13T08:15:13.013Z,98625.67
2017-12-13T08:17:40.470Z,98619.49
2017-12-13T08:20:07.924Z,98615.98
2017-12-13T08:22:35.737Z,98608.52
2017-12-13T08:25:03.193Z,98609.67
2017-12-13T08:27:30.645Z,98604.03
2017-12-13T08:29:58.370Z,98602.09
2017-12-13T08:32:25.835Z,98595.62
2017-12-13T08:34:53.297Z,98591.56
2017-12-13T08:37:21.061Z,98598.35
2017-12-13T08:39:48.527Z,98590.84
2017-12-13T08:42:15.985Z,98591.69
2017-12-13T08:44:43.754Z,98595.07
2017-12-13T08:47:11.211Z,98585.61
2017-12-13T08:49:38.677Z,98580.25
2017-12-13T08:52:06.436Z,98581.41
2017-12-13T08:54:33.909Z,98578.81
2017-12-13T08:57:01.373Z,98573.88
2017-12-13T08:59:29.116Z,98563.27
2017-12-13T09:01:56.573Z,98554.73
2017-12-13T09:04:24.035Z,98554.72
2017-12-13T09:06:51.812Z,98552.48
2017-12-13T09:09:19.273Z,98558.60
2017-12-13T09:11:46.725Z,98558.04
2017-12-13T09:14:14.453Z,98553.84
2017-12-13T09:16:43.556Z,98557.81
2017-12-13T09:19:11.021Z,98557.96
2017-12-13T09:21:39.018Z,98556.23
2017-12-13T09:24:06.481Z,98558.79
2017-12-13T09:26:33.944Z,98549.26
2017-12-13T09:29:01.713Z,98548.38
2017-12-13T09:31:29.461Z,98550.14
2017-12-13T09:33:56.913Z,98549.73
2017-12-13T09:36:24.718Z,98547.83
2017-12-13T09:38:52.189Z,98533.30
2017-12-13T09:41:19.645Z,98527.56
2017-12-13T09:43:47.395Z,98514.66
2017-12-13T09:46:14.852Z,98519.41
2017-12-13T09:48:42.359Z,98512.70
2017-12-13T09:51:10.358Z,98509.83
2017-12-13T09:53:37.819Z,98503.00
2017-12-13T09:56:05.283Z,98494.64
2017-12-13T09:58:33.058Z,98487.66
2017-12-13T10:01:00.504Z,98489.50
2017-12-13T10:03:27.973Z,98492.84
2017-12-13T10:05:55.682Z,98486.36
2017-12-13T10:08:23.139Z,98481.74
2017-12-13T10:10:50.604Z,98477.20
2017-12-13T10:13:18.285Z,98467.17
2017-12-13T10:15:45.745Z,98465.97
2017-12-13T10:18:13.752Z,98460.30
2017-12-13T10:20:41.440Z,98466.70
2017-12-13T10:23:08.892Z,98454.13
2017-12-13T10:32:20.025Z,98447.20
2017-12-13T10:34:47.474Z,98449.85
2017-12-13T10:37:14.921Z,98443.09
2017-12-13T10:39:42.702Z,98434.49
2017-12-13T10:42:10.149Z,98430.68
2017-12-13T10:44:37.609Z,98424.39
2017-12-13T10:47:05.397Z,98425.06
2017-12-13T10:49:32.857Z,98421.97
2017-12-13T10:52:00.305Z,98415.99
2017-12-13T10:54:28.097Z,98413.51
2017-12-13T10:56:55.560Z,98405.22
2017-12-13T10:59:23.013Z,98399.80
2017-12-13T11:01:50.656Z,98393.04
2017-12-13T11:04:18.107Z,98399.09
2017-12-13T11:06:45.552Z,98392.97
2017-12-13T11:09:13.472Z,98382.69
2017-12-13T11:11:40.926Z,98378.34
2017-12-13T11:14:08.393Z,98380.15
2017-12-13T11:16:36.446Z,98366.60
2017-12-13T11:19:04.326Z,98365.47
2017-12-13T11:21:31.761Z,98360.87
2017-12-13T11:23:59.446Z,98355.80
2017-12-13T11:26:26.895Z,98354.74
2017-12-13T11:28:54.341Z,98354.44
2017-12-13T11:31:22.035Z,98347.70
2017-12-13T11:33:49.485Z,98346.87
2017-12-13T11:36:16.940Z,98332.48
2017-12-13T11:38:45.083Z,98333.43
2017-12-13T11:41:12.533Z,98321.67
2017-12-13T11:43:39.994Z,98312.82
2017-12-13T11:46:07.823Z,98302.13
2017-12-13T11:48:35.290Z,98301.27
2017-12-13T11:51:02.742Z,98302.45
2017-12-13T11:53:30.810Z,98297.78
2017-12-13T11:55:58.269Z,98279.98
2017-12-13T11:58:25.727Z,98276.39
2017-12-13T12:00:53.812Z,98268.33
2017-12-13T12:03:21.310Z,98263.23
2017-12-13T12:05:49.511Z,98254.86
2017-12-13T12:08:17.425Z,98246.09
2017-12-13T12:10:44.881Z,98240.89
2017-12-13T12:13:12.337Z,98221.61
2017-12-13T12:15:40.104Z,98224.25
2017-12-13T12:18:07.569Z,98211.56
2017-12-13T12:20:35.406Z,98208.72
2017-12-13T12:23:03.226Z,98195.45
2017-12-13T12:25:30.682Z,98194.30
2017-12-13T12:27:58.142Z,98190.34
2017-12-13T12:30:26.086Z,98189.20
2017-12-13T12:32:53.534Z,98184.27
2017-12-13T12:35:20.982Z,98183.55
2017-12-13T12:37:49.390Z,98191.18
2017-12-13T12:40:16.844Z,98185.95
2017-12-13T12:42:44.299Z,98179.58
2017-12-13T12:45:11.952Z,98165.42
2017-12-13T12:47:39.409Z,98154.88
2017-12-13T12:50:06.857Z,98149.84
2017-12-13T12:52:34.709Z,98131.79
2017-12-13T12:55:02.163Z,98134.66
2017-12-13T12:57:29.608Z,98119.98
2017-12-13T12:59:57.449Z,98106.83
2017-12-13T13:02:24.910Z,98098.14
2017-12-13T13:04:52.358Z,98096.52
2017-12-13T13:07:20.148Z,98085.13
2017-12-13T13:09:47.696Z,98077.77
2017-12-13T13:12:15.146Z,98074.06
2017-12-13T13:14:42.821Z,98071.06
2017-12-13T13:17:10.269Z,98061.02
2017-12-13T13:19:37.716Z,98060.78
2017-12-13T13:22:06.285Z,98046.92
2017-12-13T13:24:33.833Z,98043.04
2017-12-13T13:27:01.299Z,98038.88
2017-12-13T13:29:29.166Z,98031.67
2017-12-13T13:31:56.633Z,98034.59
2017-12-13T13:34:24.086Z,98031.08
2017-12-13T13:36:51.814Z,98029.30
2017-12-13T13:39:19.268Z,98017.52
2017-12-13T13:41:46.717Z,98007.69
2017-12-13T13:44:14.494Z,98004.03
2017-12-13T13:46:41.938Z,97992.56
2017-12-13T13:49:09.393Z,97988.69
2017-12-13T13:51:37.476Z,97985.12
2017-12-13T13:54:04.923Z,97969.87
2017-12-13T13:56:32.376Z,97970.19
2017-12-13T13:58:59.951Z,97970.92
2017-12-13T14:01:27.395Z,97961.70
2017-12-13T14:03:54.846Z,97951.37
2017-12-13T14:06:22.549Z,97943.57
2017-12-13T14:08:50.006Z,97940.27
2017-12-13T14:11:17.445Z,97935.13
2017-12-13T14:13:45.233Z,97927.30
2017-12-13T14:16:12.676Z,97922.73
2017-12-13T14:18:40.126Z,97909.67
2017-12-13T14:21:07.966Z,97910.22
2017-12-13T14:23:35.445Z,97906.66
2017-12-13T14:26:02.894Z,97910.16
2017-12-13T14:28:30.605Z,97904.42
2017-12-13T14:30:58.064Z,97895.02
2017-12-13T14:33:25.515Z,97896.61
2017-12-13T14:35:53.297Z,97888.54
2017-12-13T14:38:20.735Z,97889.08
2017-12-13T14:40:48.283Z,97887.68
2017-12-13T14:43:15.982Z,97894.09
2017-12-13T14:45:43.538Z,97888.19
2017-12-13T14:48:10.985Z,97875.86
2017-12-13T14:50:38.678Z,97880.73
2017-12-13T14:53:06.125Z,97886.73
2017-12-13T14:55:33.568Z,97888.31
2017-12-13T14:58:01.358Z,97884.16
2017-12-13T15:00:28.802Z,97882.84
2017-12-13T15:02:56.241Z,97885.25
2017-12-13T15:05:24.078Z,97874.33
2017-12-13T15:07:51.513Z,97873.35
2017-12-13T15:10:18.968Z,97880.54
2017-12-13T15:12:47.041Z,97875.47
2017-12-13T15:15:14.484Z,97863.66
2017-12-13T15:17:41.933Z,97858.90
2017-12-13T15:20:09.727Z,97848.03
2017-12-13T15:22:37.174Z,97848.77
2017-12-13T15:25:05.326Z,97839.91
2017-12-13T15:27:33.161Z,97829.51
2017-12-13T15:30:00.620Z,97835.97
2017-12-13T15:32:28.061Z,97835.31
2017-12-13T15:34:56.042Z,97826.85
2017-12-13T15:37:23.488Z,97826.27
2017-12-13T15:39:50.937Z,97817.06
2017-12-13T15:42:18.568Z,97806.55
2017-12-13T15:44:46.026Z,97804.61
2017-12-13T15:47:13.476Z,97794.41
2017-12-13T15:49:41.390Z,97777.52
2017-12-13T15:52:10.348Z,97773.97
2017-12-13T15:54:37.800Z,97764.70
2017-12-13T15:57:05.491Z,97759.05
2017-12-13T15:59:32.938Z,97761.50
2017-12-13T16:02:00.393Z,97761.88
2017-12-13T16:04:28.312Z,97753.56
2017-12-13T16:06:55.754Z,97743.08
2017-12-13T16:09:23.205Z,97735.92
2017-12-13T16:11:50.992Z,97734.05
2017-12-13T16:14:18.433Z,97730.52
2017-12-13T16:16:45.876Z,97733.12
2017-12-13T16:19:13.691Z,97735.52
2017-12-13T16:21:41.142Z,97729.37
2017-12-13T16:24:08.588Z,97723.41
2017-12-13T16:26:38.017Z,97728.42
2017-12-13T16:29:05.723Z,97734.46
2017-12-13T16:31:33.180Z,97737.63
2017-12-13T16:34:01.213Z,97732.19
2017-12-13T16:36:28.649Z,97727.21
2017-12-13T16:38:56.101Z,97727.08
2017-12-13T16:41:23.897Z,97719.79
2017-12-13T16:43:51.335Z,97709.37
2017-12-13T16:46:18.780Z,97708.79
2017-12-13T16:48:46.577Z,97715.83
2017-12-13T16:51:14.022Z,97711.49
2017-12-13T16:53:41.473Z,97710.49
2017-12-13T16:56:09.265Z,97708.03
2017-12-13T16:58:36.705Z,97696.53
2017-12-13T17:01:04.206Z,97700.84
2017-12-13T17:03:31.798Z,97693.09
2017-12-13T17:05:59.258Z,97692.75
2017-12-13T17:08:26.707Z,97685.85
2017-12-13T17:10:54.638Z,97683.80
2017-12-13T17:13:22.079Z,97679.93
2017-12-13T17:15:49.530Z,97674.88
2017-12-13T17:18:17.326Z,97673.91
2017-12-13T17:20:44.773Z,97667.14
2017-12-13T17:23:12.224Z,97663.38
2017-12-13T17:25:39.990Z,97670.39
2017-12-13T17:28:07.801Z,97665.39
2017-12-13T17:30:35.258Z,97663.98
2017-12-13T17:33:03.018Z,97663.59
2017-12-13T17:35:30.464Z,97660.66
2017-12-13T17:37:57.907Z,97658.61
2017-12-13T17:40:25.694Z,97649.44
2017-12-13T17:42:53.140Z,97651.27
2017-12-13T17:45:20.612Z,97652.48
2017-12-13T17:47:48.376Z,97629.53
2017-12-13T17:50:15.825Z,97625.55
2017-12-13T17:52:43.288Z,97617.30
2017-12-13T17:55:11.098Z,97609.78
2017-12-13T17:57:38.554Z,97608.72
2017-12-13T18:00:06.017Z,97603.23
2017-12-13T18:02:33.761Z,97585.14
2017-12-13T18:05:01.232Z,97583.14
2017-12-13T18:07:28.682Z,97578.36
2017-12-13T18:09:56.317Z,97564.00
2017-12-13T18:12:23.766Z,97566.61
2017-12-13T18:14:51.226Z,97561.84
2017-12-13T18:17:19.198Z,97553.48
2017-12-13T18:19:46.651Z,97542.62
2017-12-13T18:22:14.105Z,97543.68
2017-12-13T18:24:41.806Z,97538.23
2017-12-13T18:27:09.261Z,97530.88
2017-12-13T18:29:37.109Z,97528.48
2017-12-13T18:32:05.157Z,97520.08
2017-12-13T18:34:32.589Z,97512.66
2017-12-13T18:37:00.044Z,97503.86
2017-12-13T18:39:27.809Z,97493.95
2017-12-13T18:41:55.260Z,97491.83
2017-12-13T18:44:22.704Z,97494.06
2017-12-13T18:46:50.486Z,97483.80
2017-12-13T18:49:17.935Z,97483.64
2017-12-13T18:51:45.381Z,97474.30
2017-12-13T18:54:13.176Z,97462.77
2017-12-13T18:56:40.629Z,97466.95
2017-12-13T18:59:08.086Z,97461.11
2017-12-13T19:01:35.861Z,97459.35
2017-12-13T19:04:03.306Z,97453.39
2017-12-13T19:06:30.762Z,97429.39
2017-12-13T19:08:58.545Z,97416.72
2017-12-13T19:11:25.991Z,97426.18
2017-12-13T19:13:53.489Z,97423.80
2017-12-13T19:16:21.250Z,97413.52
2017-12-13T19:18:48.705Z,97407.44
2017-12-13T19:21:16.154Z,97401.63
2017-12-13T19:23:43.958Z,97389.34
2017-12-13T19:26:11.415Z,97378.88
2017-12-13T19:28:38.890Z,97373.77
2017-12-13T19:31:07.556Z,97376.56
2017-12-13T19:33:35.005Z,97366.30
2017-12-13T19:36:02.462Z,97355.78
2017-12-13T19:38:30.230Z,97345.55
2017-12-13T19:40:57.674Z,97345.67
2017-12-13T19:43:25.139Z,97354.78
2017-12-13T19:45:52.914Z,97355.02
2017-12-13T19:48:20.361Z,97350.02
2017-12-13T19:50:47.818Z,97350.05
2017-12-13T19:53:15.592Z,97351.03
2017-12-13T19:55:43.038Z,97354.02
2017-12-13T19:58:10.557Z,97344.98
2017-12-13T20:00:38.599Z,97327.66
2017-12-13T20:03:06.057Z,97317.87
2017-12-13T20:05:33.507Z,97312.20
2017-12-13T20:08:01.279Z,97299.92
2017-12-13T20:10:28.735Z,97287.17
2017-12-13T20:12:56.225Z,97289.38
2017-12-13T20:15:23.977Z,97285.67
2017-12-13T20:17:51.435Z,97281.45
2017-12-13T20:20:18.885Z,97279.44
2017-12-13T20:22:46.658Z,97281.73
2017-12-13T20:25:14.117Z,97274.64
2017-12-13T20:27:41.576Z,97262.55
2017-12-13T20:30:09.349Z,97271.41
2017-12-13T20:32:36.869Z,97268.08
2017-12-13T20:35:05.233Z,97255.47
2017-12-13T20:37:32.967Z,97243.45
2017-12-13T20:40:00.414Z,97248.08
2017-12-13T20:42:27.863Z,97242.11
2017-12-13T20:44:55.638Z,97237.36
2017-12-13T20:47:23.078Z,97229.45
2017-12-13T20:49:50.669Z,97240.64
2017-12-13T20:52:18.637Z,97238.12
2017-12-13T20:54:46.115Z,97231.84
2017-12-13T20:57:13.566Z,97227.96
2017-12-13T20:59:41.647Z,97249.83
2017-12-13T21:02:09.132Z,97230.02
2017-12-13T21:04:36.588Z,97227.06
2017-12-13T21:07:04.369Z,97249.13
2017-12-13T21:09:31.816Z,97239.63
2017-12-13T21:11:59.253Z,97235.41
2017-12-13T21:14:27.346Z,97245.51
2017-12-13T21:16:54.794Z,97237.25
2017-12-13T21:19:22.242Z,97235.51
2017-12-13T21:21:49.986Z,97225.98
2017-12-13T21:24:17.426Z,97214.27
2017-12-13T21:26:44.865Z,97207.46
2017-12-13T21:29:12.670Z,97204.45
2017-12-13T21:31:40.122Z,97201.94
2017-12-13T21:34:08.294Z,97205.48
2017-12-13T21:36:36.006Z,97209.42
2017-12-13T21:39:03.441Z,97187.60
2017-12-13T21:41:30.894Z,97184.73
2017-12-13T21:43:58.966Z,97173.78
2017-12-13T21:46:26.412Z,97171.88
2017-12-13T21:48:53.859Z,97168.05
2017-12-13T21:51:21.657Z,97149.94
2017-12-13T21:53:49.101Z,97150.16
2017-12-13T21:56:17.753Z,97143.31
2017-12-13T21:58:45.445Z,97125.65
2017-12-13T22:01:12.887Z,97113.63
2017-12-13T22:03:40.345Z,97116.31
2017-12-13T22:06:08.252Z,97110.77
2017-12-13T22:08:35.697Z,97098.30
2017-12-13T22:11:03.152Z,97103.47
2017-12-13T22:13:30.942Z,97099.80
2017-12-13T22:15:58.381Z,97092.63
2017-12-13T22:18:25.834Z,97078.83
2017-12-13T22:20:53.637Z,97066.14
2017-12-13T22:23:21.082Z,97055.26
2017-12-13T22:25:48.524Z,97061.19
2017-12-13T22:28:16.162Z,97043.87
2017-12-13T22:30:43.608Z,97040.76
2017-12-13T22:33:11.052Z,97025.73
2017-12-13T22:35:41.158Z,97021.63
2017-12-13T22:38:08.628Z,97012.89
2017-12-13T22:40:36.072Z,97008.38
2017-12-13T22:43:03.856Z,97000.53
2017-12-13T22:45:31.314Z,97017.37
2017-12-13T22:47:58.757Z,97028.39
2017-12-13T22:50:26.545Z,97005.03
2017-12-13T22:52:54.001Z,97006.12
2017-12-13T22:55:21.448Z,97004.74
2017-12-13T22:57:49.536Z,97000.94
2017-12-13T23:00:16.985Z,97005.61
2017-12-13T23:02:44.433Z,96995.41
2017-12-13T23:05:12.220Z,96983.68
2017-12-13T23:07:39.668Z,96980.88
2017-12-13T23:10:07.120Z,96970.33
2017-12-13T23:12:34.898Z,96962.98
2017-12-13T23:15:02.338Z,96954.59
2017-12-13T23:17:29.794Z,96948.59
2017-12-13T23:19:57.581Z,96938.05
2017-12-13T23:22:25.021Z,96933.33
2017-12-13T23:24:52.461Z,96927.15
2017-12-13T23:27:20.285Z,96909.29
2017-12-13T23:29:47.734Z,96883.02
2017-12-13T23:32:15.182Z,96868.34
2017-12-13T23:34:43.279Z,96864.25
2017-12-13T23:37:11.561Z,96861.94
2017-12-13T23:39:39.005Z,96852.03
2017-12-13T23:42:06.619Z,96835.77
2017-12-13T23:44:34.055Z,96830.09
2017-12-13T23:47:01.780Z,96835.05
2017-12-13T23:49:29.775Z,96827.22
2017-12-13T23:51:57.208Z,96830.67
2017-12-13T23:54:24.662Z,96829.11
2017-12-13T23:56:52.564Z,96811.73
2017-12-13T23:59:20.001Z,96811.02
